Time;durP1;ratioP1;P1;durP2;ratioP2;P2;SDS_P1;SDS_P2;PMS_P1;PMS_P2;Temp;Humidity;BMP_temperature;BMP_pressure;BME280_temperature;BME280_humidity;BME280_pressure;Samples;Min_cycle;Max_cycle;Signal;HPM_P1;HPM_P2
2023/12/08 00:00:15;;;;;;;28.85;13.93;;;;;;;1.89;100.00;100498.47;4927296;28;20497;-84
2023/12/08 00:02:40;;;;;;;31.75;15.07;;;;;;;1.89;100.00;100489.53;4940422;28;20182;-84
2023/12/08 00:05:06;;;;;;;28.73;14.70;;;;;;;1.93;100.00;100475.75;4953347;29;20045;-84
2023/12/08 00:07:32;;;;;;;27.92;15.25;;;;;;;1.95;100.00;100471.19;4954342;28;20035;-84
2023/12/08 00:09:57;;;;;;;30.70;14.95;;;;;;;1.95;100.00;100463.09;4940254;29;20033;-84
2023/12/08 00:12:23;;;;;;;28.95;13.10;;;;;;;2.01;100.00;100449.25;4925511;29;20038;-84
2023/12/08 00:14:49;;;;;;;32.83;15.23;;;;;;;1.94;100.00;100420.84;4939755;29;20438;-84
2023/12/08 00:17:14;;;;;;;32.00;15.38;;;;;;;1.99;100.00;100417.91;4934562;29;20390;-84
2023/12/08 00:19:40;;;;;;;27.92;14.55;;;;;;;1.98;100.00;100421.56;4954673;28;20467;-83
2023/12/08 00:22:06;;;;;;;28.20;14.38;;;;;;;1.97;100.00;100427.91;4928596;29;20547;-84
2023/12/08 00:24:31;;;;;;;31.90;14.80;;;;;;;2.01;100.00;100434.91;4953243;28;20034;-84
2023/12/08 00:26:57;;;;;;;26.67;13.73;;;;;;;2.07;100.00;100439.13;4952830;29;20131;-84
2023/12/08 00:29:23;;;;;;;29.73;14.98;;;;;;;2.08;100.00;100436.31;4953511;28;20098;-84
2023/12/08 00:31:48;;;;;;;28.98;14.30;;;;;;;2.12;100.00;100432.53;4951848;29;20374;-84
2023/12/08 00:34:13;;;;;;;26.55;12.38;;;;;;;2.16;100.00;100435.94;4925100;29;20404;-84
2023/12/08 00:36:41;;;;;;;28.77;14.10;;;;;;;2.17;100.00;100440.41;4953272;28;20110;-84
2023/12/08 00:39:07;;;;;;;26.80;12.80;;;;;;;2.17;100.00;100443.97;4953465;29;20039;-84
2023/12/08 00:41:33;;;;;;;26.27;13.20;;;;;;;2.20;100.00;100442.94;4934100;28;20042;-85
2023/12/08 00:43:58;;;;;;;29.80;13.40;;;;;;;2.15;100.00;100434.22;4951711;29;20035;-85
2023/12/08 00:46:23;;;;;;;27.25;13.05;;;;;;;2.20;100.00;100445.66;4936479;28;20102;-84
2023/12/08 00:48:49;;;;;;;28.83;12.23;;;;;;;2.20;100.00;100445.66;4941784;29;20421;-84
2023/12/08 00:51:14;;;;;;;28.23;13.65;;;;;;;2.18;100.00;100436.72;4951571;28;20031;-85
2023/12/08 00:53:41;;;;;;;26.23;13.60;;;;;;;2.21;100.00;100433.88;4921539;29;20070;-85
2023/12/08 00:56:07;;;;;;;28.20;13.30;;;;;;;2.21;100.00;100425.78;4935462;29;20043;-85
2023/12/08 00:58:34;;;;;;;26.00;12.18;;;;;;;2.27;100.00;100430.88;4951925;28;20038;-85
2023/12/08 01:00:59;;;;;;;26.20;12.98;;;;;;;2.26;100.00;100429.09;4936785;29;20050;-85
2023/12/08 01:03:25;;;;;;;28.30;13.35;;;;;;;2.31;100.00;100428.88;4952796;28;20031;-85
2023/12/08 01:05:51;;;;;;;23.15;11.88;;;;;;;2.25;100.00;100438.19;4953406;28;20054;-85
2023/12/08 01:08:16;;;;;;;29.15;13.15;;;;;;;2.29;100.00;100420.84;4920889;29;20059;-85
2023/12/08 01:10:42;;;;;;;25.90;12.20;;;;;;;2.22;100.00;100421.28;4954091;28;20043;-85
2023/12/08 01:13:07;;;;;;;24.13;12.75;;;;;;;2.29;100.00;100426.25;4918250;29;20035;-85
2023/12/08 01:15:34;;;;;;;29.45;13.07;;;;;;;2.33;100.00;100411.66;4950153;28;20405;-85
2023/12/08 01:17:59;;;;;;;28.17;12.85;;;;;;;2.31;100.00;100421.66;4935771;28;20051;-85
2023/12/08 01:20:25;;;;;;;25.13;12.43;;;;;;;2.31;100.00;100407.25;4952999;28;20035;-85
2023/12/08 01:22:51;;;;;;;31.38;13.05;;;;;;;2.34;100.00;100409.81;4933337;29;20035;-85
2023/12/08 01:25:16;;;;;;;24.13;12.48;;;;;;;2.33;100.00;100403.53;4946554;28;20043;-84
2023/12/08 01:27:42;;;;;;;26.17;12.35;;;;;;;2.35;100.00;100406.16;4953420;28;20082;-85
2023/12/08 01:30:08;;;;;;;24.80;12.05;;;;;;;2.35;100.00;100403.47;4936610;29;20038;-85
2023/12/08 01:32:33;;;;;;;27.45;13.38;;;;;;;2.32;100.00;100401.78;4951139;28;20041;-85
2023/12/08 01:34:58;;;;;;;24.83;12.95;;;;;;;2.30;100.00;100410.94;4936040;29;20114;-85
2023/12/08 01:37:24;;;;;;;24.38;12.93;;;;;;;2.25;100.00;100399.47;4921651;28;20503;-85
2023/12/08 01:39:51;;;;;;;28.23;12.57;;;;;;;2.28;100.00;100405.63;4936010;29;20031;-85
2023/12/08 01:42:16;;;;;;;27.75;13.98;;;;;;;2.25;100.00;100404.88;4951580;29;20037;-85
2023/12/08 01:44:42;;;;;;;26.17;13.38;;;;;;;2.22;100.00;100396.97;4923372;29;20039;-85
2023/12/08 01:47:07;;;;;;;31.85;13.27;;;;;;;2.15;100.00;100380.22;4939408;29;20500;-85
2023/12/08 01:49:34;;;;;;;27.33;13.18;;;;;;;2.16;100.00;100388.19;4935819;28;20086;-85
2023/12/08 01:52:00;;;;;;;26.55;12.18;;;;;;;2.16;100.00;100381.94;4949514;28;20341;-85
2023/12/08 01:54:26;;;;;;;28.85;14.60;;;;;;;2.11;100.00;100386.69;4935004;28;20889;-85
2023/12/08 01:56:52;;;;;;;33.30;13.38;;;;;;;2.08;100.00;100392.25;4952125;28;20035;-85
2023/12/08 01:59:17;;;;;;;34.08;13.15;;;;;;;2.05;100.00;100382.50;4919657;29;20077;-85
2023/12/08 02:01:43;;;;;;;24.00;12.73;;;;;;;2.12;100.00;100381.22;4935213;28;20031;-85
2023/12/08 02:04:08;;;;;;;29.55;12.85;;;;;;;2.12;100.00;100386.63;4937886;29;20067;-85
2023/12/08 02:06:35;;;;;;;26.02;13.20;;;;;;;2.06;100.00;100380.66;4951968;29;20067;-84
2023/12/08 02:09:01;;;;;;;31.13;14.35;;;;;;;2.00;100.00;100371.03;4946874;29;20519;-84
2023/12/08 02:11:26;;;;;;;27.45;14.68;;;;;;;2.04;100.00;100363.69;4935469;29;20142;-85
2023/12/08 02:13:53;;;;;;;28.27;14.20;;;;;;;2.00;100.00;100363.84;4956546;28;20041;-85
2023/12/08 02:16:28;;;;;;;29.25;13.93;;;;;;;2.00;100.00;100354.84;4940336;29;20122;-86
2023/12/08 02:18:55;;;;;;;35.05;15.63;;;;;;;1.91;100.00;100344.53;4952064;28;20489;-85
2023/12/08 02:21:20;;;;;;;30.73;15.10;;;;;;;1.89;100.00;100341.91;4952111;28;20040;-84
2023/12/08 02:23:50;;;;;;;30.92;14.45;;;;;;;1.91;100.00;100340.00;4937102;29;20039;-85
2023/12/08 02:26:17;;;;;;;33.90;15.35;;;;;;;1.90;100.00;100338.25;4952849;28;20086;-85
2023/12/08 02:28:43;;;;;;;27.42;14.77;;;;;;;1.86;100.00;100327.72;4936391;29;20093;-85
2023/12/08 02:31:15;;;;;;;36.42;15.57;;;;;;;1.85;100.00;100324.13;4935406;28;20466;-85
2023/12/08 02:33:45;;;;;;;34.92;16.75;;;;;;;1.83;100.00;100315.22;4952441;28;20038;-85
2023/12/08 02:36:14;;;;;;;37.30;16.63;;;;;;;1.82;100.00;100313.47;4951723;28;20031;-85
2023/12/08 02:38:41;;;;;;;37.60;16.60;;;;;;;1.85;100.00;100316.03;4928257;29;20051;-85
2023/12/08 02:41:06;;;;;;;37.72;18.40;;;;;;;1.80;100.00;100310.88;4949355;28;20042;-86
2023/12/08 02:43:32;;;;;;;34.78;15.90;;;;;;;1.84;100.00;100303.50;4950577;29;20114;-85
2023/12/08 02:45:57;;;;;;;36.92;16.73;;;;;;;1.79;100.00;100306.44;4937686;28;20125;-86
2023/12/08 02:48:23;;;;;;;36.00;16.45;;;;;;;1.84;100.00;100303.50;4952266;28;20453;-85
2023/12/08 02:50:48;;;;;;;34.20;17.17;;;;;;;1.81;100.00;100304.50;4945757;29;20397;-85
2023/12/08 02:53:15;;;;;;;31.98;16.27;;;;;;;1.80;100.00;100296.50;4954476;28;20035;-86
2023/12/08 02:55:41;;;;;;;38.25;17.15;;;;;;;1.80;100.00;100289.28;4936966;28;20035;-86
2023/12/08 02:58:06;;;;;;;38.47;18.23;;;;;;;1.84;100.00;100293.56;4948140;29;20508;-86
2023/12/08 03:00:31;;;;;;;36.30;18.20;;;;;;;1.82;100.00;100297.28;4929905;29;20050;-86
2023/12/08 03:02:57;;;;;;;38.92;17.98;;;;;;;1.82;100.00;100291.88;4930109;29;20028;-86
2023/12/08 03:05:22;;;;;;;39.08;17.85;;;;;;;1.83;100.00;100290.94;4937613;29;20492;-85
2023/12/08 03:07:48;;;;;;;37.83;17.17;;;;;;;1.83;100.00;100289.09;4942678;29;20489;-86
2023/12/08 03:10:13;;;;;;;44.90;18.40;;;;;;;1.90;100.00;100284.25;4936752;29;20522;-85
2023/12/08 03:12:39;;;;;;;39.72;18.10;;;;;;;1.87;100.00;100283.56;4955255;29;20024;-86
2023/12/08 03:15:05;;;;;;;38.65;18.75;;;;;;;1.85;100.00;100289.03;4940497;29;20122;-86
2023/12/08 03:17:30;;;;;;;42.97;18.95;;;;;;;1.84;100.00;100295.41;4924338;29;20084;-86
2023/12/08 03:19:56;;;;;;;44.17;20.33;;;;;;;1.86;100.00;100288.09;4956857;28;20170;-86
2023/12/08 03:22:21;;;;;;;39.88;19.52;;;;;;;1.84;100.00;100287.31;4923400;29;20047;-87
2023/12/08 03:24:46;;;;;;;47.20;18.70;;;;;;;1.86;100.00;100314.22;4950143;29;20374;-86
2023/12/08 03:27:12;;;;;;;40.50;17.90;;;;;;;1.86;100.00;100323.19;4923499;29;20521;-87
2023/12/08 03:29:41;;;;;;;38.95;18.70;;;;;;;1.83;100.00;100305.31;4915187;28;20039;-86
2023/12/08 03:32:07;;;;;;;40.72;18.88;;;;;;;1.83;100.00;100312.53;4960076;28;20024;-86
2023/12/08 03:34:33;;;;;;;38.45;17.65;;;;;;;1.84;100.00;100315.16;4955484;28;20031;-86
2023/12/08 03:36:58;;;;;;;42.80;18.83;;;;;;;1.79;100.00;100305.56;4951601;28;20050;-86
2023/12/08 03:39:24;;;;;;;39.72;19.15;;;;;;;1.87;100.00;100313.25;4923072;29;20038;-85
2023/12/08 03:41:49;;;;;;;43.13;18.55;;;;;;;1.89;100.00;100317.63;4955403;28;20035;-86
2023/12/08 03:44:15;;;;;;;42.53;18.83;;;;;;;1.87;100.00;100314.13;4954676;28;20444;-85
2023/12/08 03:46:44;;;;;;;45.70;18.08;;;;;;;1.87;100.00;100318.63;4939086;29;20050;-86
2023/12/08 03:49:09;;;;;;;45.03;19.52;;;;;;;1.87;100.00;100311.44;4955774;28;20046;-86
2023/12/08 03:51:35;;;;;;;49.03;18.10;;;;;;;1.82;100.00;100308.97;4935446;29;20024;-86
2023/12/08 03:54:00;;;;;;;39.00;18.88;;;;;;;1.82;100.00;100302.69;4941442;29;20125;-87
2023/12/08 03:56:26;;;;;;;42.13;18.73;;;;;;;1.82;100.00;100318.88;4943565;29;20123;-86
2023/12/08 03:58:51;;;;;;;42.38;18.58;;;;;;;1.85;100.00;100321.41;4954789;28;20493;-87
2023/12/08 04:01:18;;;;;;;36.92;17.83;;;;;;;1.87;100.00;100329.44;4919537;29;20039;-87
2023/12/08 04:03:43;;;;;;;45.38;20.45;;;;;;;1.85;100.00;100316.03;4955717;28;20038;-85
2023/12/08 04:06:09;;;;;;;41.25;18.77;;;;;;;1.86;100.00;100312.38;4954105;29;20031;-87
2023/12/08 04:08:34;;;;;;;46.40;18.95;;;;;;;1.91;100.00;100321.09;4945361;29;20030;-87
2023/12/08 04:11:00;;;;;;;42.13;18.55;;;;;;;1.83;100.00;100302.59;4956850;29;20065;-86
2023/12/08 04:13:25;;;;;;;47.55;20.02;;;;;;;1.87;100.00;100300.66;4939543;29;20058;-87
2023/12/08 04:15:50;;;;;;;45.35;18.67;;;;;;;1.86;100.00;100293.50;4939893;29;20031;-87
2023/12/08 04:18:16;;;;;;;42.33;19.25;;;;;;;1.86;100.00;100289.94;4956574;28;20489;-86
2023/12/08 04:20:42;;;;;;;50.63;20.92;;;;;;;1.81;100.00;100295.56;4955061;29;20437;-87
2023/12/08 04:23:07;;;;;;;41.42;19.77;;;;;;;1.87;100.00;100291.66;4953971;29;20058;-87
2023/12/08 04:25:33;;;;;;;46.83;19.17;;;;;;;1.89;100.00;100298.72;4954900;28;20055;-86
2023/12/08 04:27:59;;;;;;;48.65;21.73;;;;;;;1.81;100.00;100292.84;4936303;29;20072;-87
2023/12/08 04:30:24;;;;;;;39.50;19.15;;;;;;;1.81;100.00;100288.31;4913134;28;20568;-86
2023/12/08 04:32:50;;;;;;;44.45;18.60;;;;;;;1.83;100.00;100290.94;4939158;29;20119;-87
2023/12/08 04:35:15;;;;;;;48.70;19.17;;;;;;;1.84;100.00;100292.69;4946477;28;20027;-86
2023/12/08 04:37:41;;;;;;;49.80;17.88;;;;;;;1.84;100.00;100301.66;4944075;28;20486;-86
2023/12/08 04:40:07;;;;;;;40.25;17.95;;;;;;;1.87;100.00;100295.25;4952078;29;20122;-88
2023/12/08 04:42:34;;;;;;;40.30;18.08;;;;;;;1.84;100.00;100292.69;4954534;28;20043;-85
2023/12/08 04:44:59;;;;;;;39.15;18.20;;;;;;;1.82;100.00;100286.47;4951193;28;20472;-86
2023/12/08 04:47:25;;;;;;;45.13;18.85;;;;;;;1.86;100.00;100292.63;4949408;29;20119;-85
2023/12/08 04:49:50;;;;;;;47.95;19.60;;;;;;;1.83;100.00;100291.81;4951266;29;20516;-86
2023/12/08 04:52:17;;;;;;;42.70;18.17;;;;;;;1.87;100.00;100300.66;4951924;28;20122;-85
2023/12/08 04:54:42;;;;;;;43.65;19.50;;;;;;;1.87;100.00;100299.75;4919263;29;20027;-86
2023/12/08 04:57:07;;;;;;;40.58;18.80;;;;;;;1.86;100.00;100293.50;4955882;28;20046;-85
2023/12/08 04:59:33;;;;;;;39.85;17.70;;;;;;;1.88;100.00;100298.81;4905617;29;20122;-85
2023/12/08 05:01:58;;;;;;;41.45;18.52;;;;;;;1.89;100.00;100287.94;4912777;29;20044;-86
2023/12/08 05:04:24;;;;;;;46.85;19.58;;;;;;;1.91;100.00;100296.81;4943946;29;20445;-85
2023/12/08 05:06:49;;;;;;;46.63;17.42;;;;;;;1.90;100.00;100280.69;4949539;28;20066;-87
2023/12/08 05:09:14;;;;;;;37.63;17.85;;;;;;;1.88;100.00;100271.81;4949087;29;20147;-85
2023/12/08 05:11:40;;;;;;;42.72;18.33;;;;;;;1.92;100.00;100281.47;4946049;29;20023;-86
2023/12/08 05:14:05;;;;;;;43.15;18.77;;;;;;;1.92;100.00;100282.38;4966911;29;20066;-86
2023/12/08 05:16:31;;;;;;;40.17;17.33;;;;;;;1.88;100.00;100277.22;4934217;29;20038;-86
2023/12/08 05:18:56;;;;;;;35.70;16.60;;;;;;;1.95;100.00;100287.63;4959950;28;20035;-87
2023/12/08 05:21:22;;;;;;;42.33;19.02;;;;;;;1.93;100.00;100275.13;4938431;29;20031;-86
2023/12/08 05:23:48;;;;;;;39.70;17.98;;;;;;;1.98;100.00;100276.66;4942612;28;20069;-87
2023/12/08 05:26:14;;;;;;;38.85;18.77;;;;;;;1.98;100.00;100282.06;4942393;28;20091;-88
2023/12/08 05:28:39;;;;;;;45.97;18.88;;;;;;;2.00;100.00;100274.75;4940363;28;20097;-86
2023/12/08 05:31:05;;;;;;;41.70;18.95;;;;;;;2.05;100.00;100277.22;4924275;29;20460;-86
2023/12/08 05:33:30;;;;;;;45.38;20.15;;;;;;;2.02;100.00;100274.66;4952613;29;20346;-86
2023/12/08 05:35:56;;;;;;;35.97;17.70;;;;;;;1.99;100.00;100267.59;4912093;29;20023;-90
2023/12/08 05:38:24;;;;;;;41.97;19.08;;;;;;;2.06;100.00;100276.22;4907660;29;20031;-88
2023/12/08 05:40:50;;;;;;;43.17;18.58;;;;;;;2.05;100.00;100281.72;4939312;29;20062;-90
2023/12/08 05:43:15;;;;;;;43.33;19.70;;;;;;;2.05;100.00;100284.41;4954773;29;20035;-92
2023/12/08 05:45:40;;;;;;;43.25;18.98;;;;;;;2.07;100.00;100282.53;4920011;29;20036;-91
2023/12/08 05:48:07;;;;;;;45.40;19.13;;;;;;;2.07;100.00;100298.72;4952999;29;20039;-89
2023/12/08 05:50:33;;;;;;;40.30;17.77;;;;;;;2.01;100.00;100289.97;4923057;29;20122;-89
2023/12/08 05:52:58;;;;;;;41.10;18.50;;;;;;;2.06;100.00;100294.28;4921555;29;20066;-88
2023/12/08 05:55:23;;;;;;;38.35;17.83;;;;;;;2.11;100.00;100290.34;4949960;28;20536;-85
2023/12/08 05:57:49;;;;;;;43.70;18.10;;;;;;;2.12;100.00;100307.44;4936517;28;20110;-85
2023/12/08 06:00:18;;;;;;;45.60;19.67;;;;;;;2.15;100.00;100301.91;4931110;28;20031;-85
2023/12/08 06:02:44;;;;;;;45.92;18.48;;;;;;;2.17;100.00;100303.53;4937488;29;20035;-86
2023/12/08 06:05:12;;;;;;;44.53;19.10;;;;;;;2.17;100.00;100311.63;4952719;28;20503;-85
2023/12/08 06:07:38;;;;;;;40.92;19.35;;;;;;;2.20;100.00;100305.22;4936628;29;20090;-85
2023/12/08 06:10:04;;;;;;;41.28;19.13;;;;;;;2.22;100.00;100311.41;4936917;29;20047;-85
2023/12/08 06:12:30;;;;;;;47.58;19.63;;;;;;;2.24;100.00;100308.63;4952249;29;20118;-85
2023/12/08 06:14:59;;;;;;;44.35;19.27;;;;;;;2.26;100.00;100302.16;4933797;29;20043;-85
2023/12/08 06:17:26;;;;;;;44.40;19.02;;;;;;;2.31;100.00;100305.53;4952792;29;20172;-85
2023/12/08 06:19:51;;;;;;;39.53;18.33;;;;;;;2.32;100.00;100303.69;4939033;29;20031;-86
2023/12/08 06:22:16;;;;;;;42.30;18.55;;;;;;;2.37;100.00;100293.50;4934591;28;20644;-86
2023/12/08 06:24:42;;;;;;;44.95;18.20;;;;;;;2.38;100.00;100298.81;4905421;29;20046;-85
2023/12/08 06:27:07;;;;;;;42.70;18.50;;;;;;;2.37;100.00;100301.59;4919745;28;20059;-85
2023/12/08 06:29:33;;;;;;;46.53;19.10;;;;;;;2.35;100.00;100301.69;4920654;29;20122;-86
2023/12/08 06:31:58;;;;;;;40.13;17.67;;;;;;;2.34;100.00;100290.97;4907829;29;20063;-85
2023/12/08 06:34:23;;;;;;;43.17;18.63;;;;;;;2.38;100.00;100301.50;4938928;29;20031;-85
2023/12/08 06:36:49;;;;;;;37.97;19.13;;;;;;;2.42;100.00;100304.06;4934944;29;20445;-85
2023/12/08 06:39:17;;;;;;;44.20;18.80;;;;;;;2.40;100.00;100301.44;4936050;29;20043;-84
2023/12/08 06:41:43;;;;;;;42.50;18.55;;;;;;;2.43;100.00;100308.47;4926885;28;20401;-85
2023/12/08 06:44:09;;;;;;;47.03;19.92;;;;;;;2.41;100.00;100313.09;4939370;29;20515;-84
2023/12/08 06:46:34;;;;;;;45.92;18.60;;;;;;;2.41;100.00;100302.28;4955336;29;20086;-84
2023/12/08 06:49:01;;;;;;;45.92;20.17;;;;;;;2.39;100.00;100300.56;4930296;29;20119;-84
2023/12/08 06:51:27;;;;;;;49.08;20.38;;;;;;;2.49;100.00;100310.84;4923365;29;20031;-84
2023/12/08 06:53:53;;;;;;;42.53;19.50;;;;;;;2.42;100.00;100299.50;4955167;28;20070;-85
2023/12/08 06:56:18;;;;;;;45.08;20.20;;;;;;;2.49;100.00;100309.06;4952045;28;20110;-84
2023/12/08 06:58:44;;;;;;;44.58;18.88;;;;;;;2.47;100.00;100304.69;4938576;29;20038;-84
2023/12/08 07:01:09;;;;;;;47.55;19.10;;;;;;;2.55;100.00;100314.09;4959827;28;20028;-84
2023/12/08 07:03:34;;;;;;;47.75;18.10;;;;;;;2.50;100.00;100304.50;4918982;29;20416;-84
2023/12/08 07:06:00;;;;;;;44.00;18.83;;;;;;;2.57;100.00;100308.59;4922579;29;20113;-84
2023/12/08 07:08:25;;;;;;;47.22;19.05;;;;;;;2.61;100.00;100310.19;4922697;29;20039;-86
2023/12/08 07:10:51;;;;;;;45.65;20.25;;;;;;;2.66;100.00;100312.66;4955661;28;20035;-85
2023/12/08 07:13:16;;;;;;;43.60;18.50;;;;;;;2.71;100.00;100318.69;4936258;29;20071;-86
2023/12/08 07:15:43;;;;;;;75.68;20.40;;;;;;;2.80;100.00;100330.81;4939363;29;20456;-85
2023/12/08 07:18:08;;;;;;;45.03;19.75;;;;;;;2.76;100.00;100320.16;4906873;29;20126;-83
2023/12/08 07:20:34;;;;;;;52.72;19.92;;;;;;;2.76;100.00;100324.69;4925446;29;20138;-84
2023/12/08 07:22:59;;;;;;;49.83;18.55;;;;;;;2.74;100.00;100338.28;4939086;29;20028;-85
2023/12/08 07:25:25;;;;;;;42.25;18.90;;;;;;;2.73;100.00;100325.72;4939150;29;20058;-87
2023/12/08 07:27:51;;;;;;;45.50;19.75;;;;;;;2.73;100.00;100330.28;4925523;28;20031;-90
2023/12/08 07:30:17;;;;;;;47.15;20.67;;;;;;;2.74;100.00;100322.06;4943889;28;20476;-90
2023/12/08 07:32:44;;;;;;;43.92;19.05;;;;;;;2.75;100.00;100329.25;4941784;29;20034;-89
2023/12/08 07:35:09;;;;;;;52.08;19.98;;;;;;;2.77;100.00;100334.53;4937997;29;20371;-88
2023/12/08 07:37:39;;;;;;;49.60;20.45;;;;;;;2.78;100.00;100325.47;4943242;28;20126;-87
2023/12/08 07:40:08;;;;;;;51.58;19.85;;;;;;;2.80;100.00;100338.91;4924703;29;20034;-87
2023/12/08 07:42:34;;;;;;;56.40;20.33;;;;;;;2.79;100.00;100342.56;4941143;29;20031;-86
2023/12/08 07:45:00;;;;;;;53.33;22.17;;;;;;;2.80;100.00;100355.13;4940094;29;20089;-85
2023/12/08 07:47:27;;;;;;;57.03;20.35;;;;;;;2.79;100.00;100356.06;4923359;29;20058;-85
2023/12/08 07:49:52;;;;;;;59.47;22.15;;;;;;;2.78;100.00;100357.06;4907498;29;20027;-85
2023/12/08 07:52:17;;;;;;;64.97;23.10;;;;;;;2.82;100.00;100355.91;4906929;28;20625;-84
2023/12/08 07:54:44;;;;;;;64.88;23.17;;;;;;;2.89;100.00;100357.34;4939131;29;20046;-85
2023/12/08 07:57:09;;;;;;;67.55;22.15;;;;;;;2.86;100.00;100352.97;4938746;29;20103;-84
2023/12/08 07:59:35;;;;;;;53.55;21.10;;;;;;;2.86;100.00;100354.81;4937152;29;20094;-84
2023/12/08 08:02:01;;;;;;;62.30;22.23;;;;;;;2.89;100.00;100369.00;4920026;29;20031;-85
2023/12/08 08:04:26;;;;;;;61.28;21.35;;;;;;;2.87;100.00;100361.94;4957024;28;20481;-85
2023/12/08 08:06:51;;;;;;;64.03;22.50;;;;;;;2.90;100.00;100369.88;4907009;29;20031;-85
2023/12/08 08:09:18;;;;;;;55.20;22.27;;;;;;;2.93;100.00;100375.13;4938679;29;20043;-85
2023/12/08 08:11:44;;;;;;;69.50;23.45;;;;;;;2.93;100.00;100367.88;4942672;29;20035;-83
2023/12/08 08:14:10;;;;;;;66.18;22.15;;;;;;;2.94;100.00;100369.63;4938280;29;20062;-85
2023/12/08 08:16:36;;;;;;;70.88;25.52;;;;;;;2.96;100.00;100380.38;4923424;29;20119;-84
2023/12/08 08:19:02;;;;;;;71.43;24.35;;;;;;;2.95;100.00;100378.59;4954355;28;20050;-85
2023/12/08 08:21:28;;;;;;;70.38;24.75;;;;;;;2.99;100.00;100382.03;4955427;29;20023;-85
2023/12/08 08:23:55;;;;;;;66.85;23.73;;;;;;;2.99;100.00;100369.38;4922479;29;20031;-84
2023/12/08 08:26:20;;;;;;;77.18;25.42;;;;;;;2.98;100.00;100367.63;4954889;28;20070;-85
2023/12/08 08:28:45;;;;;;;70.55;24.73;;;;;;;3.01;100.00;100382.81;4946671;29;20106;-84
2023/12/08 08:31:16;;;;;;;69.93;25.60;;;;;;;3.04;100.00;100377.25;4953318;28;20035;-85
2023/12/08 08:33:42;;;;;;;82.50;26.48;;;;;;;3.06;100.00;100376.19;4955286;29;20102;-85
2023/12/08 08:36:08;;;;;;;77.97;25.60;;;;;;;3.04;100.00;100367.28;4936590;29;20054;-84
2023/12/08 08:38:33;;;;;;;79.30;26.45;;;;;;;3.10;100.00;100369.66;4937716;29;20118;-85
2023/12/08 08:41:00;;;;;;;86.43;26.35;;;;;;;3.12;100.00;100372.28;4921334;29;20505;-84
2023/12/08 08:43:25;;;;;;;92.10;27.25;;;;;;;3.13;100.00;100376.72;4933278;29;20031;-85
2023/12/08 08:45:51;;;;;;;85.35;26.13;;;;;;;3.15;100.00;100376.63;4960568;28;20499;-85
2023/12/08 08:48:16;;;;;;;96.68;26.38;;;;;;;3.16;100.00;100391.91;4937709;29;20035;-85
2023/12/08 08:50:42;;;;;;;87.30;26.75;;;;;;;3.17;100.00;100386.41;4921537;28;20031;-84
2023/12/08 08:53:09;;;;;;;93.03;27.98;;;;;;;3.23;100.00;100396.00;4920878;29;20038;-85
2023/12/08 08:55:34;;;;;;;88.18;27.23;;;;;;;3.25;100.00;100394.97;4906801;29;20054;-85
2023/12/08 08:58:00;;;;;;;99.10;26.52;;;;;;;3.27;100.00;100397.59;4921430;29;20051;-85
2023/12/08 09:00:26;;;;;;;100.05;28.63;;;;;;;3.26;100.00;100393.13;4934858;29;20500;-85
2023/12/08 09:02:52;;;;;;;97.75;28.60;;;;;;;3.26;100.00;100395.84;4908387;29;20047;-85
2023/12/08 09:05:20;;;;;;;99.28;27.75;;;;;;;3.33;100.00;100393.66;4921064;29;20027;-84
2023/12/08 09:07:46;;;;;;;109.68;29.65;;;;;;;3.37;100.00;100401.50;4921785;29;20528;-84
2023/12/08 09:10:13;;;;;;;99.03;27.90;;;;;;;3.38;100.00;100396.97;4919102;29;20041;-84
2023/12/08 09:12:39;;;;;;;110.80;29.55;;;;;;;3.39;100.00;100396.88;4923864;28;20070;-83
2023/12/08 09:15:05;;;;;;;101.80;27.65;;;;;;;3.45;100.00;100411.91;4905909;29;20023;-83
2023/12/08 09:17:30;;;;;;;102.65;27.90;;;;;;;3.44;100.00;100408.34;4937301;29;20074;-84
2023/12/08 09:19:56;;;;;;;102.57;28.92;;;;;;;3.50;100.00;100407.97;4936060;29;20089;-84
2023/12/08 09:22:22;;;;;;;121.32;29.25;;;;;;;3.50;100.00;100413.38;4952332;28;20036;-84
2023/12/08 09:24:48;;;;;;;129.63;29.00;;;;;;;3.56;100.00;100403.16;4943584;29;20031;-84
2023/12/08 09:27:13;;;;;;;126.00;30.75;;;;;;;3.62;100.00;100410.94;4919454;29;20129;-84
2023/12/08 09:29:39;;;;;;;129.77;29.90;;;;;;;3.65;100.00;100411.63;4923197;29;20039;-84
2023/12/08 09:32:05;;;;;;;131.93;31.10;;;;;;;3.72;100.00;100417.56;4925237;29;20024;-84
2023/12/08 09:34:30;;;;;;;126.43;31.73;;;;;;;3.80;100.00;100412.56;4930861;29;20538;-84
2023/12/08 09:36:57;;;;;;;129.60;31.65;;;;;;;3.84;100.00;100408.75;4914007;29;20562;-84
2023/12/08 09:39:23;;;;;;;134.55;32.00;;;;;;;3.91;100.00;100424.63;4917639;29;20027;-84
2023/12/08 09:41:54;;;;;;;125.85;30.60;;;;;;;3.96;100.00;100430.66;4933986;29;20019;-84
2023/12/08 09:44:20;;;;;;;139.43;31.02;;;;;;;4.00;100.00;100426.78;4934502;29;20541;-84
2023/12/08 09:46:45;;;;;;;130.25;32.17;;;;;;;3.98;100.00;100431.44;4933860;29;20126;-84
2023/12/08 09:49:26;;;;;;;128.80;31.00;;;;;;;4.12;100.00;100433.34;4916593;29;20038;-84
2023/12/08 09:51:51;;;;;;;138.52;30.67;;;;;;;4.15;100.00;100438.56;4917477;29;20024;-84
2023/12/08 09:54:19;;;;;;;123.90;30.38;;;;;;;4.20;100.00;100425.63;4916787;29;20035;-84
2023/12/08 09:56:46;;;;;;;135.52;31.10;;;;;;;4.34;100.00;100430.22;4933473;29;20040;-84
2023/12/08 09:59:12;;;;;;;134.00;29.65;;;;;;;4.38;100.00;100424.50;4934985;29;20110;-84
2023/12/08 10:01:38;;;;;;;142.75;30.80;;;;;;;4.45;100.00;100418.72;4917013;29;20613;-85
2023/12/08 10:04:03;;;;;;;134.55;30.42;;;;;;;4.54;100.00;100429.88;4919958;29;20111;-84
2023/12/08 10:06:30;;;;;;;127.10;29.50;;;;;;;4.58;100.00;100427.84;4933618;29;20028;-83
2023/12/08 10:08:56;;;;;;;125.50;28.17;;;;;;;4.68;100.00;100439.88;4935529;29;20401;-84
2023/12/08 10:11:23;;;;;;;123.00;28.83;;;;;;;4.75;100.00;100445.78;4929160;29;20024;-83
2023/12/08 10:13:49;;;;;;;138.70;29.17;;;;;;;4.74;100.00;100438.66;4931848;29;20035;-84
2023/12/08 10:16:14;;;;;;;131.32;28.50;;;;;;;4.75;100.00;100437.66;4936306;29;20700;-83
2023/12/08 10:18:40;;;;;;;114.30;26.17;;;;;;;4.88;100.00;100441.34;4902702;29;20040;-84
2023/12/08 10:21:19;;;;;;;128.82;28.95;;;;;;;4.92;100.00;100436.59;4917476;29;20110;-83
2023/12/08 10:23:46;;;;;;;140.90;27.83;;;;;;;4.99;100.00;100439.81;4932714;29;20034;-83
2023/12/08 10:26:16;;;;;;;146.70;28.85;;;;;;;5.04;100.00;100438.56;4924598;29;20130;-84
2023/12/08 10:28:42;;;;;;;145.63;28.75;;;;;;;5.04;100.00;100438.56;4953233;28;20042;-83
2023/12/08 10:31:08;;;;;;;126.05;28.52;;;;;;;5.12;100.00;100440.78;4935852;28;20019;-83
2023/12/08 10:33:34;;;;;;;127.22;28.33;;;;;;;5.11;100.00;100436.31;4951810;29;20035;-84
2023/12/08 10:36:00;;;;;;;133.07;27.40;;;;;;;5.14;100.00;100441.56;4904526;29;20509;-84
2023/12/08 10:38:25;;;;;;;121.78;27.17;;;;;;;5.14;100.00;100428.84;4955065;28;20031;-84
2023/12/08 10:40:55;;;;;;;116.90;25.67;;;;;;;5.25;100.00;100439.03;4936049;29;20046;-84
2023/12/08 10:43:25;;;;;;;120.70;25.92;;;;;;;5.36;100.00;100437.47;4948971;28;20042;-84
2023/12/08 10:45:53;;;;;;;117.97;26.85;;;;;;;5.41;100.00;100440.75;4952324;28;20043;-84
2023/12/08 10:48:20;;;;;;;102.25;23.55;;;;;;;5.43;100.00;100436.13;4952323;29;20035;-84
2023/12/08 10:50:53;;;;;;;120.10;27.05;;;;;;;5.48;100.00;100439.41;4951071;29;20038;-84
2023/12/08 10:53:20;;;;;;;107.15;26.48;;;;;;;5.46;100.00;100431.38;4952703;28;20032;-84
2023/12/08 10:55:50;;;;;;;124.03;26.30;;;;;;;5.52;100.00;100424.66;4951208;29;20049;-84
2023/12/08 10:58:19;;;;;;;123.78;26.02;;;;;;;5.55;100.00;100437.16;4951645;29;20143;-84
2023/12/08 11:00:45;;;;;;;117.80;26.30;;;;;;;5.61;100.00;100428.63;4951672;28;20030;-84